createdAt,value
2023-05-11T00:00:40.123Z,12.42
2023-05-11T00:03:06.886Z,12.45
2023-05-11T00:05:33.646Z,12.48
2023-05-11T00:08:00.307Z,12.52
2023-05-11T00:10:28.528Z,12.54
2023-05-11T00:12:55.546Z,12.56
2023-05-11T00:15:22.120Z,12.51
2023-05-11T00:17:48.706Z,12.48
2023-05-11T00:20:15.380Z,12.40
2023-05-11T00:22:44.056Z,12.37
2023-05-11T00:25:11.445Z,12.34
2023-05-11T00:27:37.979Z,12.34
2023-05-11T00:30:05.014Z,12.31
2023-05-11T00:32:31.661Z,12.27
2023-05-11T00:34:58.443Z,12.31
2023-05-11T00:37:26.078Z,12.33
2023-05-11T00:39:52.892Z,12.29
2023-05-11T00:42:19.457Z,12.29
2023-05-11T00:44:46.019Z,12.26
2023-05-11T00:47:12.701Z,12.24
2023-05-11T00:49:39.994Z,12.20
2023-05-11T00:52:06.746Z,12.19
2023-05-11T00:54:33.387Z,12.19
2023-05-11T00:56:59.984Z,12.20
2023-05-11T00:59:27.455Z,12.21
2023-05-11T01:01:54.250Z,12.18
2023-05-11T01:04:21.001Z,12.21
2023-05-11T01:07:06.011Z,12.20
2023-05-11T01:09:47.926Z,12.23
2023-05-11T01:12:25.926Z,12.23
2023-05-11T01:15:06.430Z,12.24
2023-05-11T01:18:01.427Z,12.23
2023-05-11T01:20:30.414Z,12.26
2023-05-11T01:23:32.438Z,12.24
2023-05-11T01:26:36.503Z,12.19
2023-05-11T01:29:31.130Z,12.19
2023-05-11T01:32:00.005Z,12.23
2023-05-11T01:34:32.064Z,12.24
2023-05-11T01:37:00.821Z,12.18
2023-05-11T01:39:42.746Z,12.23
2023-05-11T01:42:10.791Z,12.22
2023-05-11T01:44:43.551Z,12.19
2023-05-11T01:47:12.069Z,12.19
2023-05-11T01:49:40.733Z,12.19
2023-05-11T01:52:09.938Z,12.19
2023-05-11T01:54:38.672Z,12.19
2023-05-11T01:57:06.535Z,12.19
2023-05-11T01:59:34.154Z,12.21
2023-05-11T02:02:02.259Z,12.20
2023-05-11T02:04:30.218Z,12.20
2023-05-11T02:06:59.046Z,12.22
2023-05-11T02:09:26.718Z,12.22
2023-05-11T02:11:56.220Z,12.21
2023-05-11T02:14:24.718Z,12.27
2023-05-11T02:16:52.851Z,12.28
2023-05-11T02:19:21.113Z,12.27
2023-05-11T02:21:49.817Z,12.28
2023-05-11T02:24:18.230Z,12.31
2023-05-11T02:26:44.809Z,12.33
2023-05-11T02:29:11.653Z,12.34
2023-05-11T02:31:44.323Z,12.33
2023-05-11T02:34:21.129Z,12.29
2023-05-11T02:36:54.518Z,12.29
2023-05-11T02:39:22.061Z,12.24
2023-05-11T02:41:57.080Z,12.24
2023-05-11T02:44:31.591Z,12.21
2023-05-11T02:47:02.549Z,12.23
2023-05-11T02:49:31.890Z,12.22
2023-05-11T02:52:01.522Z,12.20
2023-05-11T02:54:29.397Z,12.15
2023-05-11T02:56:57.431Z,12.14
2023-05-11T02:59:25.223Z,12.14
2023-05-11T03:01:52.843Z,12.14
2023-05-11T03:04:19.677Z,12.15
2023-05-11T03:06:46.366Z,12.14
2023-05-11T03:09:13.145Z,12.13
2023-05-11T03:11:40.711Z,12.17
2023-05-11T03:14:07.621Z,12.18
2023-05-11T03:16:35.032Z,12.19
2023-05-11T03:19:02.700Z,12.19
2023-05-11T03:21:29.481Z,12.17
2023-05-11T03:23:57.123Z,12.20
2023-05-11T03:26:27.386Z,12.21
2023-05-11T03:28:55.654Z,12.22
2023-05-11T03:31:22.471Z,12.22
2023-05-11T03:33:49.160Z,12.23
2023-05-11T03:36:16.021Z,12.21
2023-05-11T03:38:45.197Z,12.20
2023-05-11T03:41:15.869Z,12.21
2023-05-11T03:43:45.203Z,12.19
2023-05-11T03:46:12.364Z,12.18
2023-05-11T03:48:40.580Z,12.20
2023-05-11T03:51:07.443Z,12.25
2023-05-11T03:53:34.164Z,12.31
2023-05-11T03:56:01.754Z,12.35
2023-05-11T03:58:28.784Z,12.37
2023-05-11T04:00:55.496Z,12.38
2023-05-11T04:03:22.233Z,12.34
2023-05-11T04:05:48.980Z,12.32
2023-05-11T04:08:15.676Z,12.35
2023-05-11T04:10:42.251Z,12.39
2023-05-11T04:13:08.828Z,12.42
2023-05-11T04:15:37.440Z,12.45
2023-05-11T04:18:04.192Z,12.50
2023-05-11T04:20:30.788Z,12.54
2023-05-11T04:22:57.352Z,12.52
2023-05-11T04:25:23.911Z,12.47
2023-05-11T04:27:50.407Z,12.49
2023-05-11T04:30:17.414Z,12.50
2023-05-11T04:32:44.339Z,12.52
2023-05-11T04:35:10.940Z,12.51
2023-05-11T04:37:37.618Z,12.52
2023-05-11T04:40:04.578Z,12.52
2023-05-11T04:42:31.436Z,12.52
2023-05-11T04:44:57.964Z,12.54
2023-05-11T04:47:24.467Z,12.53
2023-05-11T04:49:51.994Z,12.55
2023-05-11T04:52:18.643Z,13.13
2023-05-11T04:54:45.265Z,13.68
2023-05-11T04:57:11.787Z,14.22
2023-05-11T04:59:38.379Z,14.49
2023-05-11T05:02:05.028Z,14.62
2023-05-11T05:04:32.559Z,14.70
2023-05-11T05:07:00.931Z,14.73
2023-05-11T05:09:27.486Z,14.77
2023-05-11T05:11:54.321Z,14.81
2023-05-11T05:14:20.888Z,14.89
2023-05-11T05:16:47.494Z,14.81
2023-05-11T05:19:14.114Z,14.48
2023-05-11T05:21:41.207Z,14.28
2023-05-11T05:24:11.235Z,14.20
2023-05-11T05:26:37.948Z,14.06
2023-05-11T05:29:05.687Z,13.84
2023-05-11T05:31:32.477Z,13.75
2023-05-11T05:33:59.304Z,13.52
2023-05-11T05:36:26.044Z,13.35
2023-05-11T05:38:52.630Z,13.09
2023-05-11T05:41:19.336Z,12.89
2023-05-11T05:43:46.128Z,12.87
2023-05-11T05:46:12.795Z,12.95
2023-05-11T05:48:39.343Z,12.91
2023-05-11T05:51:05.967Z,12.98
2023-05-11T05:53:32.730Z,12.87
2023-05-11T05:55:59.475Z,12.76
2023-05-11T05:58:26.031Z,12.85
2023-05-11T06:00:52.787Z,13.22
2023-05-11T06:03:19.513Z,13.30
2023-05-11T06:05:46.162Z,13.13
2023-05-11T06:08:12.779Z,13.04
2023-05-11T06:10:39.512Z,13.04
2023-05-11T06:13:08.160Z,13.17
2023-05-11T06:15:34.883Z,13.29
2023-05-11T06:18:01.470Z,13.41
2023-05-11T06:20:28.058Z,13.34
2023-05-11T06:22:54.989Z,13.26
2023-05-11T06:25:21.692Z,13.25
2023-05-11T06:27:48.303Z,13.19
2023-05-11T06:30:14.969Z,13.14
2023-05-11T06:32:41.486Z,13.06
2023-05-11T06:35:08.445Z,12.95
2023-05-11T06:37:35.583Z,12.87
2023-05-11T06:40:02.133Z,12.84
2023-05-11T06:42:28.783Z,12.97
2023-05-11T06:44:55.542Z,12.98
2023-05-11T06:47:22.265Z,13.00
2023-05-11T06:49:49.023Z,13.11
2023-05-11T06:52:15.630Z,13.28
2023-05-11T06:54:42.236Z,13.22
2023-05-11T06:57:08.788Z,13.12
2023-05-11T06:59:35.336Z,13.09
2023-05-11T07:02:01.901Z,13.12
2023-05-11T07:04:29.866Z,13.47
2023-05-11T07:06:56.591Z,13.70
2023-05-11T07:09:23.102Z,13.75
2023-05-11T07:11:51.143Z,13.98
2023-05-11T07:14:17.794Z,14.14
2023-05-11T07:16:44.680Z,14.06
2023-05-11T07:19:11.287Z,13.85
2023-05-11T07:21:37.959Z,13.88
2023-05-11T07:24:04.786Z,14.26
2023-05-11T07:26:31.465Z,14.51
2023-05-11T07:28:58.037Z,14.75
2023-05-11T07:31:24.629Z,14.65
2023-05-11T07:33:51.330Z,14.56
2023-05-11T07:36:18.437Z,14.61
2023-05-11T07:38:44.946Z,14.80
2023-05-11T07:41:12.620Z,14.98
2023-05-11T07:43:39.407Z,15.02
2023-05-11T07:46:06.347Z,14.84
2023-05-11T07:48:32.933Z,14.72
2023-05-11T07:51:00.167Z,14.55
2023-05-11T07:53:26.768Z,14.50
2023-05-11T07:55:53.294Z,14.57
2023-05-11T07:58:19.877Z,14.49
2023-05-11T08:00:46.424Z,14.46
2023-05-11T08:03:13.278Z,14.65
2023-05-11T08:05:39.963Z,14.78
2023-05-11T08:08:06.589Z,14.83
2023-05-11T08:10:33.158Z,14.87
2023-05-11T08:12:59.705Z,14.88
2023-05-11T08:15:26.415Z,14.88
2023-05-11T08:17:53.410Z,14.82
2023-05-11T08:20:20.092Z,14.96
2023-05-11T08:22:47.003Z,14.95
2023-05-11T08:25:13.861Z,15.00
2023-05-11T08:27:40.571Z,15.16
2023-05-11T08:30:11.330Z,15.14
2023-05-11T08:32:54.566Z,15.03
2023-05-11T08:35:25.029Z,14.87
2023-05-11T08:37:51.657Z,14.78
2023-05-11T08:40:20.316Z,14.74
2023-05-11T08:42:49.550Z,14.93
2023-05-11T08:45:18.034Z,15.04
2023-05-11T08:47:45.624Z,15.20
2023-05-11T08:50:12.702Z,15.35
2023-05-11T08:52:40.661Z,15.43
2023-05-11T08:55:08.511Z,15.85
2023-05-11T08:57:35.992Z,15.99
2023-05-11T09:00:04.554Z,16.05
2023-05-11T09:02:31.861Z,16.15
2023-05-11T09:05:00.057Z,16.25
2023-05-11T09:07:28.435Z,16.21
2023-05-11T09:09:55.027Z,16.39
2023-05-11T09:12:26.048Z,16.53
2023-05-11T09:14:52.935Z,16.37
2023-05-11T09:17:19.518Z,16.24
2023-05-11T09:20:07.724Z,16.34
2023-05-11T09:22:40.612Z,16.25
2023-05-11T09:25:07.735Z,16.30
2023-05-11T09:27:34.621Z,16.34
2023-05-11T09:30:23.222Z,16.34
2023-05-11T09:33:01.169Z,16.35
2023-05-11T09:35:29.164Z,16.34
2023-05-11T09:38:12.702Z,16.37
2023-05-11T09:40:43.504Z,16.32
2023-05-11T09:43:20.207Z,16.24
2023-05-11T09:45:48.760Z,16.25
2023-05-11T09:48:21.367Z,16.25
2023-05-11T09:50:48.985Z,16.36
2023-05-11T09:53:15.960Z,16.38
2023-05-11T09:55:53.564Z,16.35
2023-05-11T09:58:20.099Z,16.43
2023-05-11T10:00:56.486Z,16.54
2023-05-11T10:03:25.627Z,16.65
2023-05-11T10:06:00.519Z,16.86
2023-05-11T10:08:34.391Z,16.82
2023-05-11T10:11:02.887Z,16.88
2023-05-11T10:13:32.145Z,16.91
2023-05-11T10:16:00.450Z,16.83
2023-05-11T10:18:27.287Z,16.65
2023-05-11T10:20:54.886Z,16.47
2023-05-11T10:23:21.852Z,16.51
2023-05-11T10:25:49.076Z,16.53
2023-05-11T10:28:16.214Z,16.60
2023-05-11T10:30:43.248Z,16.79
2023-05-11T10:33:11.016Z,16.91
2023-05-11T10:35:38.857Z,16.93
2023-05-11T10:38:06.714Z,17.03
2023-05-11T10:40:43.085Z,17.03
2023-05-11T10:43:42.517Z,17.07
2023-05-11T10:46:35.029Z,17.29
2023-05-11T10:49:52.149Z,17.37
2023-05-11T10:52:48.524Z,17.26
2023-05-11T10:55:34.509Z,17.38
2023-05-11T10:58:10.739Z,17.52
2023-05-11T11:01:18.532Z,17.81
2023-05-11T11:03:57.851Z,18.00
2023-05-11T11:06:24.721Z,18.05
2023-05-11T11:09:03.430Z,18.05
2023-05-11T11:11:33.422Z,18.06
2023-05-11T11:14:03.753Z,18.09
2023-05-11T11:16:30.991Z,18.17
2023-05-11T11:19:31.529Z,18.23
2023-05-11T11:22:01.299Z,18.24
2023-05-11T11:24:46.899Z,18.20
2023-05-11T11:27:14.648Z,18.22
2023-05-11T11:29:41.522Z,18.29
2023-05-11T11:32:20.362Z,18.45
2023-05-11T11:34:47.968Z,18.49
2023-05-11T11:37:17.938Z,18.42
2023-05-11T11:39:44.825Z,18.48
2023-05-11T11:42:19.188Z,18.48
2023-05-11T11:44:46.886Z,18.53
2023-05-11T11:47:23.237Z,18.44
2023-05-11T11:49:53.303Z,18.37
2023-05-11T11:52:29.080Z,18.34
2023-05-11T11:54:57.149Z,18.29
2023-05-11T11:57:32.700Z,18.18
2023-05-11T12:00:05.787Z,18.09
2023-05-11T12:02:33.543Z,18.10
2023-05-11T12:05:04.861Z,18.08
2023-05-11T12:07:33.643Z,18.09
2023-05-11T12:10:04.163Z,18.13
2023-05-11T12:12:31.306Z,18.17
2023-05-11T12:14:59.929Z,18.25
2023-05-11T12:17:29.542Z,18.42
2023-05-11T12:20:12.453Z,18.57
2023-05-11T12:22:39.177Z,18.69
2023-05-11T12:25:06.953Z,18.87
2023-05-11T12:27:33.974Z,18.88
2023-05-11T12:30:00.546Z,18.82
2023-05-11T12:32:29.014Z,18.94
2023-05-11T12:35:04.228Z,19.01
2023-05-11T12:37:31.528Z,19.08
2023-05-11T12:39:59.293Z,19.16
2023-05-11T12:42:26.733Z,19.20
2023-05-11T12:44:54.400Z,19.20
2023-05-11T12:47:21.158Z,19.19
2023-05-11T12:49:47.781Z,19.22
2023-05-11T12:52:14.340Z,19.22
2023-05-11T12:54:48.051Z,19.24
2023-05-11T12:57:31.608Z,19.26
2023-05-11T13:00:16.804Z,19.25
2023-05-11T13:02:54.736Z,19.31
2023-05-11T13:05:26.131Z,19.32
2023-05-11T13:07:59.051Z,19.35
2023-05-11T13:10:28.671Z,19.43
2023-05-11T13:12:56.192Z,19.53
2023-05-11T13:15:24.536Z,19.50
2023-05-11T13:17:59.266Z,19.55
2023-05-11T13:20:32.398Z,19.63
2023-05-11T13:23:08.016Z,19.59
2023-05-11T13:25:51.851Z,19.62
2023-05-11T13:28:20.091Z,19.57
2023-05-11T13:30:47.194Z,19.51
2023-05-11T13:33:13.910Z,19.50
2023-05-11T13:35:41.751Z,19.47
2023-05-11T13:38:12.374Z,19.42
2023-05-11T13:40:39.551Z,19.43
2023-05-11T13:43:06.567Z,19.44
2023-05-11T13:45:33.233Z,19.47
2023-05-11T13:47:59.813Z,19.50
2023-05-11T13:50:26.833Z,19.54
2023-05-11T13:52:54.055Z,19.58
2023-05-11T13:55:21.111Z,19.58
2023-05-11T13:57:48.072Z,19.67
2023-05-11T14:00:15.258Z,19.78
2023-05-11T14:02:41.968Z,19.89
2023-05-11T14:05:09.216Z,20.04
2023-05-11T14:07:47.189Z,20.22
2023-05-11T14:10:16.315Z,20.39
2023-05-11T14:12:43.328Z,20.54
2023-05-11T14:15:10.646Z,20.61
2023-05-11T14:17:37.515Z,20.62
2023-05-11T14:20:06.119Z,20.53
2023-05-11T14:22:32.692Z,20.41
2023-05-11T14:24:59.289Z,20.29
2023-05-11T14:27:25.874Z,20.20
2023-05-11T14:29:52.467Z,20.10
2023-05-11T14:32:19.520Z,20.00
2023-05-11T14:34:46.939Z,19.96
2023-05-11T14:37:13.817Z,19.99
2023-05-11T14:39:41.441Z,20.01
2023-05-11T14:42:08.838Z,20.08
2023-05-11T14:44:35.568Z,20.20
2023-05-11T14:47:02.220Z,20.19
2023-05-11T14:49:28.889Z,20.17
2023-05-11T14:51:56.649Z,20.18
2023-05-11T14:54:23.385Z,20.33
2023-05-11T14:56:54.056Z,20.87
2023-05-11T14:59:22.213Z,22.02
2023-05-11T15:01:49.504Z,23.46
2023-05-11T15:04:16.917Z,23.91
2023-05-11T15:06:44.093Z,23.69
2023-05-11T15:09:10.855Z,23.33
2023-05-11T15:11:37.567Z,23.04
2023-05-11T15:14:06.013Z,22.90
2023-05-11T15:16:32.953Z,23.15
2023-05-11T15:19:00.123Z,23.58
2023-05-11T15:21:27.390Z,24.23
2023-05-11T15:23:54.344Z,24.13
2023-05-11T15:26:22.160Z,24.16
2023-05-11T15:28:48.772Z,23.28
2023-05-11T15:31:15.520Z,22.38
2023-05-11T15:33:42.578Z,21.55
2023-05-11T15:36:13.972Z,20.77
2023-05-11T15:38:41.245Z,20.30
2023-05-11T15:41:08.011Z,19.99
2023-05-11T15:43:35.272Z,19.65
2023-05-11T15:46:03.770Z,19.24
2023-05-11T15:48:30.680Z,18.99
2023-05-11T15:50:59.737Z,18.78
2023-05-11T15:53:27.008Z,18.67
2023-05-11T15:55:55.393Z,18.52
2023-05-11T15:58:22.257Z,18.43
2023-05-11T16:00:49.166Z,18.62
2023-05-11T16:03:16.498Z,19.21
2023-05-11T16:05:43.312Z,19.08
2023-05-11T16:08:09.884Z,18.87
2023-05-11T16:10:36.443Z,18.67
2023-05-11T16:13:02.998Z,18.68
2023-05-11T16:15:31.254Z,18.70
2023-05-11T16:17:58.510Z,18.73
2023-05-11T16:20:25.331Z,18.82
2023-05-11T16:22:51.933Z,18.98
2023-05-11T16:25:18.668Z,19.08
2023-05-11T16:27:45.193Z,19.09
2023-05-11T16:30:23.240Z,19.15
2023-05-11T16:32:51.610Z,19.23
2023-05-11T16:35:18.509Z,19.22
2023-05-11T16:37:45.081Z,19.09
2023-05-11T16:40:11.834Z,18.92
2023-05-11T16:42:38.414Z,18.79
2023-05-11T16:45:05.484Z,18.73
2023-05-11T16:47:32.092Z,18.72
2023-05-11T16:49:58.677Z,18.54
2023-05-11T16:52:25.416Z,18.28
2023-05-11T16:54:52.864Z,18.07
2023-05-11T16:57:19.390Z,17.86
2023-05-11T16:59:45.982Z,17.82
2023-05-11T17:02:12.683Z,17.76
2023-05-11T17:04:39.214Z,17.64
2023-05-11T17:07:08.604Z,17.54
2023-05-11T17:09:35.149Z,17.43
2023-05-11T17:12:07.024Z,17.30
2023-05-11T17:14:33.589Z,17.21
2023-05-11T17:17:00.112Z,17.15
2023-05-11T17:19:26.658Z,17.15
2023-05-11T17:21:53.237Z,17.22
2023-05-11T17:24:19.838Z,17.28
2023-05-11T17:26:48.432Z,17.30
2023-05-11T17:29:16.476Z,17.26
2023-05-11T17:31:43.333Z,17.19
2023-05-11T17:34:10.673Z,17.17
2023-05-11T17:36:37.422Z,17.12
2023-05-11T17:39:05.084Z,17.09
2023-05-11T17:41:32.012Z,17.04
2023-05-11T17:43:58.549Z,17.00
2023-05-11T17:46:25.565Z,16.98
2023-05-11T17:48:53.027Z,16.94
2023-05-11T17:51:20.576Z,16.92
2023-05-11T17:53:47.376Z,16.87
2023-05-11T17:56:13.991Z,16.79
2023-05-11T17:58:40.607Z,16.80
2023-05-11T18:01:12.610Z,16.81
2023-05-11T18:03:39.564Z,16.72
2023-05-11T18:06:06.961Z,16.74
2023-05-11T18:08:33.616Z,16.77
2023-05-11T18:11:00.163Z,16.77
2023-05-11T18:13:28.676Z,16.80
2023-05-11T18:16:00.847Z,16.82
2023-05-11T18:18:27.486Z,16.78
2023-05-11T18:20:54.199Z,16.73
2023-05-11T18:23:20.706Z,16.68
2023-05-11T18:25:47.244Z,16.64
2023-05-11T18:28:13.788Z,16.61
2023-05-11T18:30:40.425Z,16.56
2023-05-11T18:33:07.105Z,16.50
2023-05-11T18:35:33.829Z,16.44
2023-05-11T18:38:02.286Z,16.39
2023-05-11T18:40:28.815Z,16.32
2023-05-11T18:42:56.217Z,16.28
2023-05-11T18:45:22.988Z,16.24
2023-05-11T18:47:50.314Z,16.21
2023-05-11T18:50:17.081Z,16.20
2023-05-11T18:52:43.836Z,16.20
2023-05-11T18:55:10.379Z,16.19
2023-05-11T18:57:39.414Z,16.15
2023-05-11T19:00:07.347Z,16.13
2023-05-11T19:02:34.076Z,16.08
2023-05-11T19:05:01.295Z,16.04
2023-05-11T19:07:28.562Z,16.01
2023-05-11T19:09:55.531Z,15.99
2023-05-11T19:12:22.479Z,15.97
2023-05-11T19:14:49.065Z,15.96
2023-05-11T19:17:15.641Z,15.95
2023-05-11T19:19:42.194Z,15.91
2023-05-11T19:22:09.305Z,15.90
2023-05-11T19:24:36.176Z,15.89
2023-05-11T19:27:07.801Z,15.90
2023-05-11T19:29:35.484Z,15.86
2023-05-11T19:32:02.537Z,15.84
2023-05-11T19:34:29.158Z,15.83
2023-05-11T19:36:55.718Z,15.79
2023-05-11T19:39:22.344Z,15.79
2023-05-11T19:41:48.958Z,15.75
2023-05-11T19:44:15.448Z,15.73
2023-05-11T19:46:46.541Z,15.70
2023-05-11T19:49:15.069Z,15.68
2023-05-11T19:51:41.927Z,15.66
2023-05-11T19:54:08.525Z,15.62
2023-05-11T19:56:35.133Z,15.57
2023-05-11T19:59:02.712Z,15.54
2023-05-11T20:01:29.297Z,15.50
2023-05-11T20:03:56.301Z,15.44
2023-05-11T20:06:23.341Z,15.39
2023-05-11T20:08:51.574Z,15.32
2023-05-11T20:11:18.348Z,15.25
2023-05-11T20:13:45.266Z,15.19
2023-05-11T20:16:11.841Z,15.14
2023-05-11T20:18:38.560Z,15.10
2023-05-11T20:21:05.408Z,15.08
2023-05-11T20:23:31.993Z,15.01
2023-05-11T20:25:58.536Z,14.98
2023-05-11T20:28:27.377Z,14.96
2023-05-11T20:30:56.256Z,14.93
2023-05-11T20:35:53.484Z,14.88
2023-05-11T20:38:20.487Z,14.91
2023-05-11T20:40:47.072Z,14.92
2023-05-11T20:43:14.771Z,14.93
2023-05-11T20:45:42.323Z,14.95
2023-05-11T20:48:09.108Z,14.98
2023-05-11T20:50:35.758Z,14.99
2023-05-11T20:53:02.399Z,15.00
2023-05-11T20:55:29.022Z,15.00
2023-05-11T20:57:55.602Z,15.00
2023-05-11T21:00:22.846Z,14.98
2023-05-11T21:02:49.797Z,14.97
2023-05-11T21:05:16.660Z,14.96
2023-05-11T21:07:43.296Z,14.94
2023-05-11T21:10:12.563Z,14.96
2023-05-11T21:12:39.258Z,14.96
2023-05-11T21:15:07.356Z,14.99
2023-05-11T21:17:34.467Z,14.98
2023-05-11T21:20:05.015Z,15.00
2023-05-11T21:22:36.463Z,14.97
2023-05-11T21:25:04.133Z,14.97
2023-05-11T21:27:31.399Z,14.96
2023-05-11T21:29:57.988Z,14.94
2023-05-11T21:32:24.616Z,14.90
2023-05-11T21:34:51.198Z,14.90
2023-05-11T21:37:20.273Z,14.91
2023-05-11T21:39:50.400Z,14.89
2023-05-11T21:42:17.225Z,14.86
2023-05-11T21:44:43.804Z,14.86
2023-05-11T21:47:10.679Z,14.85
2023-05-11T21:49:37.224Z,14.84
2023-05-11T21:52:04.071Z,14.84
2023-05-11T21:54:30.680Z,14.82
2023-05-11T21:56:57.213Z,14.82
2023-05-11T21:59:26.738Z,14.80
2023-05-11T22:01:54.870Z,14.78
2023-05-11T22:04:21.705Z,14.73
2023-05-11T22:06:48.230Z,14.70
2023-05-11T22:09:15.157Z,14.65
2023-05-11T22:11:41.697Z,14.62
2023-05-11T22:14:08.305Z,14.55
2023-05-11T22:16:34.844Z,14.45
2023-05-11T22:19:01.561Z,14.39
2023-05-11T22:21:28.339Z,14.38
2023-05-11T22:23:55.316Z,14.34
2023-05-11T22:26:21.900Z,14.27
2023-05-11T22:28:48.446Z,14.24
2023-05-11T22:31:15.018Z,14.19
2023-05-11T22:33:41.797Z,14.14
2023-05-11T22:36:08.487Z,14.10
2023-05-11T22:38:37.548Z,14.07
2023-05-11T22:41:05.016Z,14.06
2023-05-11T22:43:31.913Z,14.03
2023-05-11T22:45:58.608Z,14.01
2023-05-11T22:48:25.183Z,13.99
2023-05-11T22:50:51.758Z,13.98
2023-05-11T22:53:19.958Z,13.98
2023-05-11T22:55:46.650Z,13.93
2023-05-11T22:58:13.384Z,13.93
2023-05-11T23:00:40.166Z,13.91
2023-05-11T23:03:06.892Z,13.87
2023-05-11T23:05:33.742Z,13.84
2023-05-11T23:08:00.505Z,13.83
2023-05-11T23:10:28.637Z,13.79
2023-05-11T23:12:55.938Z,13.75
2023-05-11T23:15:22.613Z,13.73
2023-05-11T23:17:49.310Z,13.71
2023-05-11T23:20:16.872Z,13.67
2023-05-11T23:22:43.607Z,13.69
2023-05-11T23:25:10.535Z,13.70
2023-05-11T23:27:37.126Z,13.71
2023-05-11T23:30:04.014Z,13.72
2023-05-11T23:32:30.564Z,13.73
2023-05-11T23:34:57.098Z,13.73
2023-05-11T23:37:23.865Z,13.76
2023-05-11T23:39:50.598Z,13.78
2023-05-11T23:42:17.212Z,13.76
2023-05-11T23:44:44.157Z,13.73
2023-05-11T23:47:10.782Z,13.72
2023-05-11T23:49:37.371Z,13.70
2023-05-11T23:52:04.261Z,13.70
2023-05-11T23:54:30.754Z,13.70
2023-05-11T23:56:57.290Z,13.72
2023-05-11T23:59:23.897Z,13.73
